sensor_id;sensor_type;location;lat;lon;timestamp;temperature;humidity
52295;DHT22;38243;53.212;6.574;2023-02-01T00:01:38;15.60;80.70
52295;DHT22;38243;53.212;6.574;2023-02-01T00:04:04;15.60;80.80
52295;DHT22;38243;53.212;6.574;2023-02-01T00:06:30;15.60;80.70
52295;DHT22;38243;53.212;6.574;2023-02-01T00:08:56;15.60;80.60
52295;DHT22;38243;53.212;6.574;2023-02-01T00:11:23;15.60;80.60
52295;DHT22;38243;53.212;6.574;2023-02-01T00:13:49;15.60;80.50
52295;DHT22;38243;53.212;6.574;2023-02-01T00:16:20;15.60;80.40
52295;DHT22;38243;53.212;6.574;2023-02-01T00:18:48;15.60;80.40
52295;DHT22;38243;53.212;6.574;2023-02-01T00:21:17;15.60;80.50
52295;DHT22;38243;53.212;6.574;2023-02-01T00:23:43;15.60;80.40
52295;DHT22;38243;53.212;6.574;2023-02-01T00:26:18;15.60;80.50
52295;DHT22;38243;53.212;6.574;2023-02-01T00:28:44;15.60;80.40
52295;DHT22;38243;53.212;6.574;2023-02-01T00:31:10;15.60;80.40
52295;DHT22;38243;53.212;6.574;2023-02-01T00:33:36;15.60;80.50
52295;DHT22;38243;53.212;6.574;2023-02-01T00:36:06;15.60;80.50
52295;DHT22;38243;53.212;6.574;2023-02-01T00:38:36;15.60;80.50
52295;DHT22;38243;53.212;6.574;2023-02-01T00:41:13;15.60;80.40
52295;DHT22;38243;53.212;6.574;2023-02-01T00:43:39;15.60;80.60
52295;DHT22;38243;53.212;6.574;2023-02-01T00:46:05;15.60;80.40
52295;DHT22;38243;53.212;6.574;2023-02-01T00:48:31;15.60;80.50
52295;DHT22;38243;53.212;6.574;2023-02-01T00:51:01;15.60;80.60
52295;DHT22;38243;53.212;6.574;2023-02-01T00:53:27;15.60;80.50
52295;DHT22;38243;53.212;6.574;2023-02-01T00:55:53;15.60;80.60
52295;DHT22;38243;53.212;6.574;2023-02-01T00:58:19;15.60;80.50
52295;DHT22;38243;53.212;6.574;2023-02-01T01:00:44;15.60;80.50
52295;DHT22;38243;53.212;6.574;2023-02-01T01:03:12;15.60;80.50
52295;DHT22;38243;53.212;6.574;2023-02-01T01:05:45;15.60;80.60
52295;DHT22;38243;53.212;6.574;2023-02-01T01:08:10;16.20;81.50
52295;DHT22;38243;53.212;6.574;2023-02-01T01:10:36;15.60;80.50
52295;DHT22;38243;53.212;6.574;2023-02-01T01:13:02;15.60;80.50
52295;DHT22;38243;53.212;6.574;2023-02-01T01:15:28;15.60;80.50
52295;DHT22;38243;53.212;6.574;2023-02-01T01:17:53;15.60;80.40
52295;DHT22;38243;53.212;6.574;2023-02-01T01:20:19;15.60;80.50
52295;DHT22;38243;53.212;6.574;2023-02-01T01:22:47;15.60;80.40
52295;DHT22;38243;53.212;6.574;2023-02-01T01:25:14;15.60;80.50
52295;DHT22;38243;53.212;6.574;2023-02-01T01:27:39;15.60;80.40
52295;DHT22;38243;53.212;6.574;2023-02-01T01:30:06;15.60;80.30
52295;DHT22;38243;53.212;6.574;2023-02-01T01:32:32;15.60;80.30
52295;DHT22;38243;53.212;6.574;2023-02-01T01:34:58;15.60;80.30
52295;DHT22;38243;53.212;6.574;2023-02-01T01:37:24;15.60;80.40
52295;DHT22;38243;53.212;6.574;2023-02-01T01:39:50;15.60;80.40
52295;DHT22;38243;53.212;6.574;2023-02-01T01:42:15;15.60;80.30
52295;DHT22;38243;53.212;6.574;2023-02-01T01:45:05;15.60;80.30
52295;DHT22;38243;53.212;6.574;2023-02-01T01:47:37;15.60;80.40
52295;DHT22;38243;53.212;6.574;2023-02-01T01:50:07;15.60;80.50
52295;DHT22;38243;53.212;6.574;2023-02-01T01:52:34;15.60;80.40
52295;DHT22;38243;53.212;6.574;2023-02-01T01:55:00;15.60;80.50
52295;DHT22;38243;53.212;6.574;2023-02-01T01:57:31;15.60;80.50
52295;DHT22;38243;53.212;6.574;2023-02-01T02:00:07;15.60;80.40
52295;DHT22;38243;53.212;6.574;2023-02-01T02:02:35;15.60;80.40
52295;DHT22;38243;53.212;6.574;2023-02-01T02:05:02;15.60;80.40
52295;DHT22;38243;53.212;6.574;2023-02-01T02:07:32;15.60;80.50
52295;DHT22;38243;53.212;6.574;2023-02-01T02:09:59;15.60;80.50
52295;DHT22;38243;53.212;6.574;2023-02-01T02:12:25;15.60;80.50
52295;DHT22;38243;53.212;6.574;2023-02-01T02:14:51;15.60;80.50
52295;DHT22;38243;53.212;6.574;2023-02-01T02:42:20;15.60;80.40
52295;DHT22;38243;53.212;6.574;2023-02-01T02:45:26;15.50;80.40
52295;DHT22;38243;53.212;6.574;2023-02-01T02:48:29;15.60;80.40
52295;DHT22;38243;53.212;6.574;2023-02-01T02:51:07;15.50;80.40
52295;DHT22;38243;53.212;6.574;2023-02-01T02:54:03;15.50;80.50
52295;DHT22;38243;53.212;6.574;2023-02-01T02:56:49;15.60;80.50
52295;DHT22;38243;53.212;6.574;2023-02-01T02:59:35;15.50;80.50
52295;DHT22;38243;53.212;6.574;2023-02-01T03:02:20;15.50;80.40
52295;DHT22;38243;53.212;6.574;2023-02-01T03:05:05;15.50;80.40
52295;DHT22;38243;53.212;6.574;2023-02-01T03:07:59;15.50;80.50
52295;DHT22;38243;53.212;6.574;2023-02-01T03:13:18;15.50;80.40
52295;DHT22;38243;53.212;6.574;2023-02-01T03:18:38;15.50;80.50
52295;DHT22;38243;53.212;6.574;2023-02-01T03:21:13;15.50;80.50
52295;DHT22;38243;53.212;6.574;2023-02-01T03:23:42;15.50;80.60
52295;DHT22;38243;53.212;6.574;2023-02-01T03:26:12;15.50;80.40
52295;DHT22;38243;53.212;6.574;2023-02-01T03:28:43;15.50;80.40
52295;DHT22;38243;53.212;6.574;2023-02-01T03:31:09;15.50;80.40
52295;DHT22;38243;53.212;6.574;2023-02-01T03:33:35;15.50;80.40
52295;DHT22;38243;53.212;6.574;2023-02-01T03:46:58;15.50;80.40
52295;DHT22;38243;53.212;6.574;2023-02-01T03:49:30;15.50;80.40
52295;DHT22;38243;53.212;6.574;2023-02-01T03:51:59;15.50;80.40
52295;DHT22;38243;53.212;6.574;2023-02-01T03:54:27;15.50;80.30
52295;DHT22;38243;53.212;6.574;2023-02-01T03:56:56;15.50;80.50
52295;DHT22;38243;53.212;6.574;2023-02-01T03:59:23;15.50;80.40
52295;DHT22;38243;53.212;6.574;2023-02-01T04:01:49;15.50;80.40
52295;DHT22;38243;53.212;6.574;2023-02-01T04:04:15;15.50;80.40
52295;DHT22;38243;53.212;6.574;2023-02-01T04:06:51;15.50;80.50
52295;DHT22;38243;53.212;6.574;2023-02-01T04:09:17;15.50;80.50
52295;DHT22;38243;53.212;6.574;2023-02-01T04:11:43;15.50;80.40
52295;DHT22;38243;53.212;6.574;2023-02-01T04:14:09;15.50;80.50
52295;DHT22;38243;53.212;6.574;2023-02-01T04:16:35;15.50;80.50
52295;DHT22;38243;53.212;6.574;2023-02-01T04:19:00;15.50;80.50
52295;DHT22;38243;53.212;6.574;2023-02-01T04:21:26;15.50;80.50
52295;DHT22;38243;53.212;6.574;2023-02-01T04:23:53;15.50;81.10
52295;DHT22;38243;53.212;6.574;2023-02-01T04:26:19;15.50;80.50
52295;DHT22;38243;53.212;6.574;2023-02-01T04:28:46;15.50;80.50
52295;DHT22;38243;53.212;6.574;2023-02-01T04:31:15;15.50;80.50
52295;DHT22;38243;53.212;6.574;2023-02-01T04:33:41;15.50;80.50
52295;DHT22;38243;53.212;6.574;2023-02-01T04:36:06;15.50;80.50
52295;DHT22;38243;53.212;6.574;2023-02-01T04:38:32;15.50;81.00
52295;DHT22;38243;53.212;6.574;2023-02-01T04:40:58;15.50;80.60
52295;DHT22;38243;53.212;6.574;2023-02-01T04:43:24;15.50;80.60
52295;DHT22;38243;53.212;6.574;2023-02-01T04:45:51;15.50;80.70
52295;DHT22;38243;53.212;6.574;2023-02-01T04:48:18;15.50;81.30
52295;DHT22;38243;53.212;6.574;2023-02-01T04:50:45;15.50;82.60
52295;DHT22;38243;53.212;6.574;2023-02-01T04:53:15;15.50;81.80
52295;DHT22;38243;53.212;6.574;2023-02-01T04:55:42;15.50;81.30
52295;DHT22;38243;53.212;6.574;2023-02-01T04:58:08;15.50;81.00
52295;DHT22;38243;53.212;6.574;2023-02-01T05:00:34;15.40;81.30
52295;DHT22;38243;53.212;6.574;2023-02-01T05:03:00;15.50;81.20
52295;DHT22;38243;53.212;6.574;2023-02-01T05:05:26;15.50;81.20
52295;DHT22;38243;53.212;6.574;2023-02-01T05:07:52;15.50;81.10
52295;DHT22;38243;53.212;6.574;2023-02-01T05:10:18;15.50;81.10
52295;DHT22;38243;53.212;6.574;2023-02-01T05:12:44;15.50;81.20
52295;DHT22;38243;53.212;6.574;2023-02-01T05:15:29;15.50;81.10
52295;DHT22;38243;53.212;6.574;2023-02-01T05:17:55;15.50;81.50
52295;DHT22;38243;53.212;6.574;2023-02-01T05:20:21;15.50;81.20
52295;DHT22;38243;53.212;6.574;2023-02-01T05:22:46;15.50;81.40
52295;DHT22;38243;53.212;6.574;2023-02-01T05:25:12;15.50;80.50
52295;DHT22;38243;53.212;6.574;2023-02-01T05:27:38;15.40;79.60
52295;DHT22;38243;53.212;6.574;2023-02-01T05:30:05;15.40;79.40
52295;DHT22;38243;53.212;6.574;2023-02-01T05:32:31;15.40;79.30
52295;DHT22;38243;53.212;6.574;2023-02-01T05:34:56;15.30;78.90
52295;DHT22;38243;53.212;6.574;2023-02-01T05:37:22;15.20;79.00
52295;DHT22;38243;53.212;6.574;2023-02-01T05:39:48;15.20;79.00
52295;DHT22;38243;53.212;6.574;2023-02-01T05:42:14;15.20;78.50
52295;DHT22;38243;53.212;6.574;2023-02-01T05:44:40;15.20;78.00
52295;DHT22;38243;53.212;6.574;2023-02-01T05:47:06;15.10;77.20
52295;DHT22;38243;53.212;6.574;2023-02-01T05:49:31;15.10;77.00
52295;DHT22;38243;53.212;6.574;2023-02-01T05:51:57;15.00;76.90
52295;DHT22;38243;53.212;6.574;2023-02-01T05:54:23;14.90;76.90
52295;DHT22;38243;53.212;6.574;2023-02-01T05:56:48;14.90;77.30
52295;DHT22;38243;53.212;6.574;2023-02-01T05:59:14;14.80;77.40
52295;DHT22;38243;53.212;6.574;2023-02-01T06:01:40;14.80;77.60
52295;DHT22;38243;53.212;6.574;2023-02-01T06:04:05;14.70;77.50
52295;DHT22;38243;53.212;6.574;2023-02-01T06:06:31;14.70;78.20
52295;DHT22;38243;53.212;6.574;2023-02-01T06:08:57;14.70;77.90
52295;DHT22;38243;53.212;6.574;2023-02-01T06:11:23;14.70;77.80
52295;DHT22;38243;53.212;6.574;2023-02-01T06:13:48;14.70;77.90
52295;DHT22;38243;53.212;6.574;2023-02-01T06:16:17;14.70;78.20
52295;DHT22;38243;53.212;6.574;2023-02-01T06:18:43;14.70;78.10
52295;DHT22;38243;53.212;6.574;2023-02-01T06:21:09;14.70;78.20
52295;DHT22;38243;53.212;6.574;2023-02-01T06:23:35;14.60;78.30
52295;DHT22;38243;53.212;6.574;2023-02-01T06:26:06;14.60;78.10
52295;DHT22;38243;53.212;6.574;2023-02-01T06:28:33;14.60;78.20
52295;DHT22;38243;53.212;6.574;2023-02-01T06:31:05;14.70;79.60
52295;DHT22;38243;53.212;6.574;2023-02-01T06:33:32;14.70;80.10
52295;DHT22;38243;53.212;6.574;2023-02-01T06:36:00;14.70;80.40
52295;DHT22;38243;53.212;6.574;2023-02-01T06:38:27;14.80;80.50
52295;DHT22;38243;53.212;6.574;2023-02-01T06:40:57;14.80;81.20
52295;DHT22;38243;53.212;6.574;2023-02-01T06:43:25;14.90;80.50
52295;DHT22;38243;53.212;6.574;2023-02-01T06:45:51;14.90;80.50
52295;DHT22;38243;53.212;6.574;2023-02-01T06:48:18;14.90;80.40
52295;DHT22;38243;53.212;6.574;2023-02-01T06:50:44;14.90;80.50
52295;DHT22;38243;53.212;6.574;2023-02-01T06:53:11;14.90;80.40
52295;DHT22;38243;53.212;6.574;2023-02-01T06:55:36;15.00;80.50
52295;DHT22;38243;53.212;6.574;2023-02-01T06:58:02;15.00;80.50
52295;DHT22;38243;53.212;6.574;2023-02-01T07:00:28;15.00;80.40
52295;DHT22;38243;53.212;6.574;2023-02-01T07:02:54;15.00;80.20
52295;DHT22;38243;53.212;6.574;2023-02-01T07:05:21;15.10;80.30
52295;DHT22;38243;53.212;6.574;2023-02-01T07:07:46;15.10;80.30
52295;DHT22;38243;53.212;6.574;2023-02-01T07:10:12;15.10;80.50
52295;DHT22;38243;53.212;6.574;2023-02-01T07:12:38;15.10;83.00
52295;DHT22;38243;53.212;6.574;2023-02-01T07:15:05;15.10;82.80
52295;DHT22;38243;53.212;6.574;2023-02-01T07:17:31;15.00;82.80
52295;DHT22;38243;53.212;6.574;2023-02-01T07:19:56;15.00;82.90
52295;DHT22;38243;53.212;6.574;2023-02-01T07:22:25;14.90;82.50
52295;DHT22;38243;53.212;6.574;2023-02-01T07:24:51;14.90;82.30
52295;DHT22;38243;53.212;6.574;2023-02-01T07:27:17;14.90;82.10
52295;DHT22;38243;53.212;6.574;2023-02-01T07:29:42;14.80;81.50
52295;DHT22;38243;53.212;6.574;2023-02-01T07:32:08;14.80;81.80
52295;DHT22;38243;53.212;6.574;2023-02-01T07:34:34;14.80;82.00
52295;DHT22;38243;53.212;6.574;2023-02-01T07:37:00;14.70;81.60
52295;DHT22;38243;53.212;6.574;2023-02-01T07:39:26;14.70;81.70
52295;DHT22;38243;53.212;6.574;2023-02-01T07:41:54;14.70;81.60
52295;DHT22;38243;53.212;6.574;2023-02-01T07:44:20;14.70;82.10
52295;DHT22;38243;53.212;6.574;2023-02-01T07:46:49;14.70;82.00
52295;DHT22;38243;53.212;6.574;2023-02-01T07:49:14;14.70;82.20
52295;DHT22;38243;53.212;6.574;2023-02-01T07:51:40;14.70;82.10
52295;DHT22;38243;53.212;6.574;2023-02-01T07:54:06;14.80;81.80
52295;DHT22;38243;53.212;6.574;2023-02-01T07:56:32;14.80;81.60
52295;DHT22;38243;53.212;6.574;2023-02-01T07:58:58;14.80;81.40
52295;DHT22;38243;53.212;6.574;2023-02-01T08:01:26;14.80;81.60
52295;DHT22;38243;53.212;6.574;2023-02-01T08:03:55;14.80;81.30
52295;DHT22;38243;53.212;6.574;2023-02-01T08:06:21;14.80;81.50
52295;DHT22;38243;53.212;6.574;2023-02-01T08:08:49;14.80;81.20
52295;DHT22;38243;53.212;6.574;2023-02-01T08:11:15;14.80;81.00
52295;DHT22;38243;53.212;6.574;2023-02-01T08:13:42;14.80;81.00
52295;DHT22;38243;53.212;6.574;2023-02-01T08:16:12;14.80;80.40
52295;DHT22;38243;53.212;6.574;2023-02-01T08:18:39;14.80;79.20
52295;DHT22;38243;53.212;6.574;2023-02-01T08:21:19;14.80;79.50
52295;DHT22;38243;53.212;6.574;2023-02-01T08:23:47;14.80;79.30
52295;DHT22;38243;53.212;6.574;2023-02-01T08:26:16;14.80;79.40
52295;DHT22;38243;53.212;6.574;2023-02-01T08:28:46;14.80;79.30
52295;DHT22;38243;53.212;6.574;2023-02-01T08:31:14;14.90;79.40
52295;DHT22;38243;53.212;6.574;2023-02-01T08:33:41;14.80;79.30
52295;DHT22;38243;53.212;6.574;2023-02-01T08:36:08;14.90;79.30
52295;DHT22;38243;53.212;6.574;2023-02-01T08:38:38;14.90;79.40
52295;DHT22;38243;53.212;6.574;2023-02-01T08:41:15;14.90;79.40
52295;DHT22;38243;53.212;6.574;2023-02-01T08:43:41;14.90;79.50
52295;DHT22;38243;53.212;6.574;2023-02-01T08:46:08;14.90;79.50
52295;DHT22;38243;53.212;6.574;2023-02-01T08:48:34;15.00;79.50
52295;DHT22;38243;53.212;6.574;2023-02-01T08:51:09;15.00;79.70
52295;DHT22;38243;53.212;6.574;2023-02-01T08:53:36;15.00;79.60
52295;DHT22;38243;53.212;6.574;2023-02-01T08:56:02;15.00;79.60
52295;DHT22;38243;53.212;6.574;2023-02-01T08:58:28;15.00;79.60
52295;DHT22;38243;53.212;6.574;2023-02-01T09:00:53;15.00;79.70
52295;DHT22;38243;53.212;6.574;2023-02-01T09:03:19;15.10;79.80
52295;DHT22;38243;53.212;6.574;2023-02-01T09:05:45;15.10;79.90
52295;DHT22;38243;53.212;6.574;2023-02-01T09:08:11;15.10;80.30
52295;DHT22;38243;53.212;6.574;2023-02-01T09:10:41;15.10;80.20
52295;DHT22;38243;53.212;6.574;2023-02-01T09:13:07;15.10;80.40
52295;DHT22;38243;53.212;6.574;2023-02-01T09:15:34;15.10;80.50
52295;DHT22;38243;53.212;6.574;2023-02-01T09:17:59;15.10;80.20
52295;DHT22;38243;53.212;6.574;2023-02-01T09:20:25;15.10;80.40
52295;DHT22;38243;53.212;6.574;2023-02-01T09:22:52;15.10;80.60
52295;DHT22;38243;53.212;6.574;2023-02-01T09:25:18;15.10;80.60
52295;DHT22;38243;53.212;6.574;2023-02-01T09:27:44;15.10;80.40
52295;DHT22;38243;53.212;6.574;2023-02-01T09:30:10;15.10;80.50
52295;DHT22;38243;53.212;6.574;2023-02-01T09:32:36;15.10;80.20
52295;DHT22;38243;53.212;6.574;2023-02-01T09:35:02;15.10;80.40
52295;DHT22;38243;53.212;6.574;2023-02-01T09:37:28;15.10;80.20
52295;DHT22;38243;53.212;6.574;2023-02-01T09:39:54;15.10;80.00
52295;DHT22;38243;53.212;6.574;2023-02-01T09:47:38;15.10;79.50
52295;DHT22;38243;53.212;6.574;2023-02-01T09:50:16;15.10;79.80
52295;DHT22;38243;53.212;6.574;2023-02-01T09:53:15;15.10;80.40
52295;DHT22;38243;53.212;6.574;2023-02-01T09:55:48;15.10;81.50
52295;DHT22;38243;53.212;6.574;2023-02-01T10:00:54;15.20;82.10
52295;DHT22;38243;53.212;6.574;2023-02-01T10:03:21;15.10;81.80
52295;DHT22;38243;53.212;6.574;2023-02-01T10:09:01;15.20;81.30
52295;DHT22;38243;53.212;6.574;2023-02-01T10:20:10;15.10;82.00
52295;DHT22;38243;53.212;6.574;2023-02-01T10:25:35;15.20;83.50
52295;DHT22;38243;53.212;6.574;2023-02-01T10:28:02;15.20;85.40
52295;DHT22;38243;53.212;6.574;2023-02-01T10:30:42;15.20;85.40
52295;DHT22;38243;53.212;6.574;2023-02-01T10:38:53;15.20;85.10
52295;DHT22;38243;53.212;6.574;2023-02-01T10:41:23;15.10;84.90
52295;DHT22;38243;53.212;6.574;2023-02-01T10:43:55;15.20;84.60
52295;DHT22;38243;53.212;6.574;2023-02-01T10:46:25;15.20;84.50
52295;DHT22;38243;53.212;6.574;2023-02-01T10:48:56;15.20;84.40
52295;DHT22;38243;53.212;6.574;2023-02-01T10:54:11;15.20;84.40
52295;DHT22;38243;53.212;6.574;2023-02-01T10:56:40;15.20;84.40
52295;DHT22;38243;53.212;6.574;2023-02-01T10:59:16;15.10;84.30
52295;DHT22;38243;53.212;6.574;2023-02-01T11:01:45;15.20;84.30
52295;DHT22;38243;53.212;6.574;2023-02-01T11:04:19;15.20;84.20
52295;DHT22;38243;53.212;6.574;2023-02-01T11:06:53;15.10;84.00
52295;DHT22;38243;53.212;6.574;2023-02-01T11:09:24;15.20;84.20
52295;DHT22;38243;53.212;6.574;2023-02-01T11:17:00;15.10;84.30
52295;DHT22;38243;53.212;6.574;2023-02-01T11:19:27;15.20;84.30
52295;DHT22;38243;53.212;6.574;2023-02-01T11:21:56;15.10;84.20
52295;DHT22;38243;53.212;6.574;2023-02-01T11:24:26;15.10;84.20
52295;DHT22;38243;53.212;6.574;2023-02-01T11:27:01;15.20;84.60
52295;DHT22;38243;53.212;6.574;2023-02-01T11:29:36;15.20;85.00
52295;DHT22;38243;53.212;6.574;2023-02-01T11:32:03;15.00;84.90
52295;DHT22;38243;53.212;6.574;2023-02-01T11:34:38;15.20;85.40
52295;DHT22;38243;53.212;6.574;2023-02-01T11:37:20;15.20;85.30
52295;DHT22;38243;53.212;6.574;2023-02-01T11:39:58;15.20;85.30
52295;DHT22;38243;53.212;6.574;2023-02-01T11:42:24;15.20;85.30
52295;DHT22;38243;53.212;6.574;2023-02-01T11:44:50;15.20;85.30
52295;DHT22;38243;53.212;6.574;2023-02-01T11:49:45;15.20;85.00
52295;DHT22;38243;53.212;6.574;2023-02-01T12:00:02;15.20;84.70
52295;DHT22;38243;53.212;6.574;2023-02-01T12:02:43;15.20;84.60
52295;DHT22;38243;53.212;6.574;2023-02-01T12:08:52;15.20;84.40
52295;DHT22;38243;53.212;6.574;2023-02-01T12:14:05;15.20;84.10
52295;DHT22;38243;53.212;6.574;2023-02-01T12:33:32;15.20;83.90
52295;DHT22;38243;53.212;6.574;2023-02-01T12:36:14;15.20;84.30
52295;DHT22;38243;53.212;6.574;2023-02-01T12:41:55;15.30;84.50
52295;DHT22;38243;53.212;6.574;2023-02-01T12:44:40;15.30;84.40
52295;DHT22;38243;53.212;6.574;2023-02-01T12:47:16;15.40;84.60
52295;DHT22;38243;53.212;6.574;2023-02-01T12:49:55;15.40;84.60
52295;DHT22;38243;53.212;6.574;2023-02-01T12:52:40;15.40;84.50
52295;DHT22;38243;53.212;6.574;2023-02-01T12:55:27;15.40;84.60
52295;DHT22;38243;53.212;6.574;2023-02-01T13:00:47;15.40;84.60
52295;DHT22;38243;53.212;6.574;2023-02-01T13:03:44;15.50;84.80
52295;DHT22;38243;53.212;6.574;2023-02-01T13:06:27;15.50;84.90
52295;DHT22;38243;53.212;6.574;2023-02-01T13:09:24;15.50;84.90
52295;DHT22;38243;53.212;6.574;2023-02-01T13:11:50;15.50;84.80
52295;DHT22;38243;53.212;6.574;2023-02-01T13:14:36;15.50;84.80
52295;DHT22;38243;53.212;6.574;2023-02-01T13:17:12;15.50;84.90
52295;DHT22;38243;53.212;6.574;2023-02-01T13:19:48;15.50;84.90
52295;DHT22;38243;53.212;6.574;2023-02-01T13:22:28;15.60;84.90
52295;DHT22;38243;53.212;6.574;2023-02-01T13:27:37;15.60;84.80
52295;DHT22;38243;53.212;6.574;2023-02-01T13:33:13;15.60;85.00
52295;DHT22;38243;53.212;6.574;2023-02-01T13:38:29;15.60;84.90
52295;DHT22;38243;53.212;6.574;2023-02-01T13:43:51;15.60;85.00
52295;DHT22;38243;53.212;6.574;2023-02-01T13:46:18;15.60;85.00
52295;DHT22;38243;53.212;6.574;2023-02-01T13:48:55;15.60;84.80
52295;DHT22;38243;53.212;6.574;2023-02-01T13:51:50;15.70;84.90
52295;DHT22;38243;53.212;6.574;2023-02-01T13:54:32;15.60;84.90
52295;DHT22;38243;53.212;6.574;2023-02-01T13:57:03;15.70;84.80
52295;DHT22;38243;53.212;6.574;2023-02-01T14:03:16;15.70;85.00
52295;DHT22;38243;53.212;6.574;2023-02-01T14:13:39;15.70;84.70
52295;DHT22;38243;53.212;6.574;2023-02-01T14:21:30;15.70;84.80
52295;DHT22;38243;53.212;6.574;2023-02-01T14:26:46;15.70;84.80
52295;DHT22;38243;53.212;6.574;2023-02-01T14:37:25;15.70;84.80
52295;DHT22;38243;53.212;6.574;2023-02-01T14:40:13;15.60;84.60
52295;DHT22;38243;53.212;6.574;2023-02-01T14:42:49;15.70;84.30
52295;DHT22;38243;53.212;6.574;2023-02-01T14:47:50;15.70;84.60
52295;DHT22;38243;53.212;6.574;2023-02-01T14:55:55;15.70;84.50
52295;DHT22;38243;53.212;6.574;2023-02-01T14:58:44;15.70;84.50
52295;DHT22;38243;53.212;6.574;2023-02-01T15:01:17;15.70;84.50
52295;DHT22;38243;53.212;6.574;2023-02-01T15:03:48;15.60;84.60
52295;DHT22;38243;53.212;6.574;2023-02-01T15:06:38;15.70;84.50
52295;DHT22;38243;53.212;6.574;2023-02-01T15:09:12;15.70;84.40
52295;DHT22;38243;53.212;6.574;2023-02-01T15:12:01;15.60;84.40
52295;DHT22;38243;53.212;6.574;2023-02-01T15:14:39;15.60;84.40
52295;DHT22;38243;53.212;6.574;2023-02-01T15:17:27;15.70;84.50
52295;DHT22;38243;53.212;6.574;2023-02-01T15:22:36;15.60;84.50
52295;DHT22;38243;53.212;6.574;2023-02-01T15:25:02;15.60;84.40
52295;DHT22;38243;53.212;6.574;2023-02-01T15:27:29;15.60;84.40
52295;DHT22;38243;53.212;6.574;2023-02-01T15:30:05;15.70;84.50
52295;DHT22;38243;53.212;6.574;2023-02-01T15:32:37;15.70;84.50
52295;DHT22;38243;53.212;6.574;2023-02-01T15:35:04;15.70;84.40
52295;DHT22;38243;53.212;6.574;2023-02-01T15:37:31;15.70;84.40
52295;DHT22;38243;53.212;6.574;2023-02-01T15:42:35;15.70;84.30
52295;DHT22;38243;53.212;6.574;2023-02-01T15:45:03;15.70;84.30
52295;DHT22;38243;53.212;6.574;2023-02-01T15:47:30;15.70;84.30
52295;DHT22;38243;53.212;6.574;2023-02-01T15:49:59;15.70;84.30
52295;DHT22;38243;53.212;6.574;2023-02-01T15:52:37;15.70;84.30
52295;DHT22;38243;53.212;6.574;2023-02-01T15:55:07;15.70;84.20
52295;DHT22;38243;53.212;6.574;2023-02-01T15:57:36;15.70;84.20
52295;DHT22;38243;53.212;6.574;2023-02-01T16:00:18;15.70;84.10
52295;DHT22;38243;53.212;6.574;2023-02-01T16:02:53;15.70;84.10
52295;DHT22;38243;53.212;6.574;2023-02-01T16:05:39;15.70;84.10
52295;DHT22;38243;53.212;6.574;2023-02-01T16:08:20;15.70;84.00
52295;DHT22;38243;53.212;6.574;2023-02-01T16:10:48;15.70;83.80
52295;DHT22;38243;53.212;6.574;2023-02-01T16:13:16;15.70;83.60
52295;DHT22;38243;53.212;6.574;2023-02-01T16:15:42;15.70;83.60
52295;DHT22;38243;53.212;6.574;2023-02-01T16:18:09;15.70;83.80
52295;DHT22;38243;53.212;6.574;2023-02-01T16:20:36;15.70;83.90
52295;DHT22;38243;53.212;6.574;2023-02-01T16:23:03;15.70;83.80
52295;DHT22;38243;53.212;6.574;2023-02-01T16:25:29;15.70;83.80
52295;DHT22;38243;53.212;6.574;2023-02-01T16:27:55;15.70;83.90
52295;DHT22;38243;53.212;6.574;2023-02-01T16:30:21;15.70;83.90
52295;DHT22;38243;53.212;6.574;2023-02-01T16:32:59;15.70;83.80
52295;DHT22;38243;53.212;6.574;2023-02-01T16:35:28;15.70;83.60
52295;DHT22;38243;53.212;6.574;2023-02-01T16:37:55;15.70;83.50
52295;DHT22;38243;53.212;6.574;2023-02-01T16:40:21;15.70;83.40
52295;DHT22;38243;53.212;6.574;2023-02-01T16:42:50;15.70;83.30
52295;DHT22;38243;53.212;6.574;2023-02-01T16:45:17;15.70;83.30
52295;DHT22;38243;53.212;6.574;2023-02-01T16:47:49;15.60;83.10
52295;DHT22;38243;53.212;6.574;2023-02-01T16:50:20;15.70;83.10
52295;DHT22;38243;53.212;6.574;2023-02-01T16:52:46;15.60;83.00
52295;DHT22;38243;53.212;6.574;2023-02-01T16:55:13;15.70;82.90
52295;DHT22;38243;53.212;6.574;2023-02-01T16:57:41;15.70;83.00
52295;DHT22;38243;53.212;6.574;2023-02-01T17:00:08;15.60;82.60
52295;DHT22;38243;53.212;6.574;2023-02-01T17:02:34;15.60;82.70
52295;DHT22;38243;53.212;6.574;2023-02-01T17:05:00;15.60;82.50
52295;DHT22;38243;53.212;6.574;2023-02-01T17:07:26;15.60;82.80
52295;DHT22;38243;53.212;6.574;2023-02-01T17:09:52;15.60;82.80
52295;DHT22;38243;53.212;6.574;2023-02-01T17:12:23;15.60;82.90
52295;DHT22;38243;53.212;6.574;2023-02-01T17:14:49;15.60;83.10
52295;DHT22;38243;53.212;6.574;2023-02-01T17:17:16;15.60;83.20
52295;DHT22;38243;53.212;6.574;2023-02-01T17:19:44;15.60;83.20
52295;DHT22;38243;53.212;6.574;2023-02-01T17:22:11;15.60;83.20
52295;DHT22;38243;53.212;6.574;2023-02-01T17:24:39;15.60;83.40
52295;DHT22;38243;53.212;6.574;2023-02-01T17:27:05;15.60;83.30
52295;DHT22;38243;53.212;6.574;2023-02-01T17:29:31;15.60;83.30
52295;DHT22;38243;53.212;6.574;2023-02-01T17:31:56;15.60;83.40
52295;DHT22;38243;53.212;6.574;2023-02-01T17:34:25;15.60;83.30
52295;DHT22;38243;53.212;6.574;2023-02-01T17:36:50;15.60;83.40
52295;DHT22;38243;53.212;6.574;2023-02-01T17:39:16;15.60;83.30
52295;DHT22;38243;53.212;6.574;2023-02-01T17:42:02;15.60;83.30
52295;DHT22;38243;53.212;6.574;2023-02-01T17:44:28;15.60;83.30
52295;DHT22;38243;53.212;6.574;2023-02-01T17:46:53;15.60;83.30
52295;DHT22;38243;53.212;6.574;2023-02-01T17:49:22;15.60;83.30
52295;DHT22;38243;53.212;6.574;2023-02-01T17:51:48;15.60;83.40
52295;DHT22;38243;53.212;6.574;2023-02-01T17:54:15;15.60;83.30
52295;DHT22;38243;53.212;6.574;2023-02-01T17:56:43;15.60;83.30
52295;DHT22;38243;53.212;6.574;2023-02-01T17:59:08;15.60;83.30
52295;DHT22;38243;53.212;6.574;2023-02-01T18:01:34;15.60;83.30
52295;DHT22;38243;53.212;6.574;2023-02-01T18:04:00;15.60;83.30
52295;DHT22;38243;53.212;6.574;2023-02-01T18:06:26;15.60;83.30
52295;DHT22;38243;53.212;6.574;2023-02-01T18:08:52;15.60;83.30
52295;DHT22;38243;53.212;6.574;2023-02-01T18:11:23;15.60;83.30
52295;DHT22;38243;53.212;6.574;2023-02-01T18:13:50;15.60;83.30
52295;DHT22;38243;53.212;6.574;2023-02-01T18:16:27;15.60;83.30
52295;DHT22;38243;53.212;6.574;2023-02-01T18:18:54;15.60;83.30
52295;DHT22;38243;53.212;6.574;2023-02-01T18:21:34;15.60;83.30
52295;DHT22;38243;53.212;6.574;2023-02-01T18:24:01;15.60;83.30
52295;DHT22;38243;53.212;6.574;2023-02-01T18:26:27;15.60;83.30
52295;DHT22;38243;53.212;6.574;2023-02-01T18:28:52;15.60;83.10
52295;DHT22;38243;53.212;6.574;2023-02-01T18:31:23;15.60;83.20
52295;DHT22;38243;53.212;6.574;2023-02-01T18:33:50;15.60;83.30
52295;DHT22;38243;53.212;6.574;2023-02-01T18:36:17;15.60;83.10